sensor_id;sensor_type;location;lat;lon;timestamp;pressure;altitude;pressure_sealevel;temperature;humidity
76052;BME280;64751;48.708;9.710;2023-07-29T14:32:46;97092.72;;;23.41;58.24
76052;BME280;64751;48.708;9.710;2023-07-29T14:35:14;97094.28;;;23.42;57.43
76052;BME280;64751;48.708;9.710;2023-07-29T14:37:42;97098.56;;;23.46;57.28
76052;BME280;64751;48.708;9.710;2023-07-29T14:40:09;97085.94;;;23.57;56.84
76052;BME280;64751;48.708;9.710;2023-07-29T14:42:37;97084.53;;;23.70;56.46
76052;BME280;64751;48.708;9.710;2023-07-29T14:45:06;97091.28;;;23.98;55.79
76052;BME280;64751;48.708;9.710;2023-07-29T14:47:34;97101.84;;;24.10;54.92
76052;BME280;64751;48.708;9.710;2023-07-29T14:50:04;97084.19;;;24.26;52.91
76052;BME280;64751;48.708;9.710;2023-07-29T14:52:31;97094.31;;;24.43;51.64
76052;BME280;64751;48.708;9.710;2023-07-29T14:54:59;97080.84;;;24.47;50.17
76052;BME280;64751;48.708;9.710;2023-07-29T14:57:26;97080.47;;;24.48;50.11
76052;BME280;64751;48.708;9.710;2023-07-29T14:59:54;97075.09;;;24.56;49.55
76052;BME280;64751;48.708;9.710;2023-07-29T15:02:22;97083.16;;;24.48;49.71
76052;BME280;64751;48.708;9.710;2023-07-29T15:04:49;97087.75;;;24.37;50.50
76052;BME280;64751;48.708;9.710;2023-07-29T15:07:18;97085.38;;;24.25;51.04
76052;BME280;64751;48.708;9.710;2023-07-29T15:09:46;97092.19;;;24.09;51.42
76052;BME280;64751;48.708;9.710;2023-07-29T15:12:14;97092.06;;;23.98;51.58
76052;BME280;64751;48.708;9.710;2023-07-29T15:14:41;97097.09;;;24.00;52.15
76052;BME280;64751;48.708;9.710;2023-07-29T15:17:09;97082.47;;;24.04;51.53
76052;BME280;64751;48.708;9.710;2023-07-29T15:19:36;97090.22;;;24.06;52.13
76052;BME280;64751;48.708;9.710;2023-07-29T15:22:04;97096.72;;;24.01;51.66
76052;BME280;64751;48.708;9.710;2023-07-29T15:24:33;97100.13;;;23.95;52.88
76052;BME280;64751;48.708;9.710;2023-07-29T15:27:01;97100.91;;;23.95;51.72
76052;BME280;64751;48.708;9.710;2023-07-29T15:29:29;97111.38;;;24.00;51.14
76052;BME280;64751;48.708;9.710;2023-07-29T15:31:58;97107.09;;;23.96;51.61
76052;BME280;64751;48.708;9.710;2023-07-29T15:34:26;97102.41;;;23.89;52.69
76052;BME280;64751;48.708;9.710;2023-07-29T15:36:58;97104.66;;;23.84;52.09
76052;BME280;64751;48.708;9.710;2023-07-29T15:39:28;97109.28;;;23.83;51.76
76052;BME280;64751;48.708;9.710;2023-07-29T15:41:58;97105.44;;;23.81;52.72
76052;BME280;64751;48.708;9.710;2023-07-29T15:44:26;97103.84;;;23.76;52.75
76052;BME280;64751;48.708;9.710;2023-07-29T15:47:01;97107.28;;;23.73;52.98
76052;BME280;64751;48.708;9.710;2023-07-29T15:49:30;97106.06;;;23.67;53.58
76052;BME280;64751;48.708;9.710;2023-07-29T15:52:01;97101.81;;;23.66;54.45
76052;BME280;64751;48.708;9.710;2023-07-29T15:54:29;97100.28;;;23.65;54.52
76052;BME280;64751;48.708;9.710;2023-07-29T15:56:59;97106.09;;;23.70;54.48
76052;BME280;64751;48.708;9.710;2023-07-29T15:59:30;97109.25;;;23.76;54.83
76052;BME280;64751;48.708;9.710;2023-07-29T16:02:00;97101.16;;;23.79;54.55
76052;BME280;64751;48.708;9.710;2023-07-29T16:05:42;97102.00;;;23.87;55.00
76052;BME280;64751;48.708;9.710;2023-07-29T16:08:16;97088.78;;;23.71;54.64
76052;BME280;64751;48.708;9.710;2023-07-29T16:10:59;97069.00;;;23.57;55.48
76052;BME280;64751;48.708;9.710;2023-07-29T16:16:47;97086.72;;;23.58;54.35
76052;BME280;64751;48.708;9.710;2023-07-29T16:19:23;97090.50;;;23.50;55.31
76052;BME280;64751;48.708;9.710;2023-07-29T16:21:51;97088.91;;;23.45;54.65
76052;BME280;64751;48.708;9.710;2023-07-29T16:24:18;97086.56;;;23.40;56.03
76052;BME280;64751;48.708;9.710;2023-07-29T16:26:46;97084.53;;;23.34;56.47
76052;BME280;64751;48.708;9.710;2023-07-29T16:29:14;97083.31;;;23.28;56.81
76052;BME280;64751;48.708;9.710;2023-07-29T16:31:42;97090.59;;;23.24;57.48
76052;BME280;64751;48.708;9.710;2023-07-29T16:34:11;97079.03;;;23.23;56.37
76052;BME280;64751;48.708;9.710;2023-07-29T16:36:38;97084.00;;;23.21;56.72
76052;BME280;64751;48.708;9.710;2023-07-29T16:39:06;97084.00;;;23.18;56.59
76052;BME280;64751;48.708;9.710;2023-07-29T16:41:33;97075.44;;;23.12;57.30
76052;BME280;64751;48.708;9.710;2023-07-29T16:44:00;97076.97;;;23.09;57.34
76052;BME280;64751;48.708;9.710;2023-07-29T16:46:28;97088.50;;;23.10;56.67
76052;BME280;64751;48.708;9.710;2023-07-29T16:48:55;97082.09;;;23.22;56.74
76052;BME280;64751;48.708;9.710;2023-07-29T16:51:24;97078.44;;;23.37;56.78
76052;BME280;64751;48.708;9.710;2023-07-29T16:53:52;97078.16;;;23.49;56.56
76052;BME280;64751;48.708;9.710;2023-07-29T16:56:20;97081.28;;;23.51;56.56
76052;BME280;64751;48.708;9.710;2023-07-29T16:58:47;97085.44;;;23.45;56.39
76052;BME280;64751;48.708;9.710;2023-07-29T17:01:15;97084.22;;;23.39;56.81
76052;BME280;64751;48.708;9.710;2023-07-29T17:03:42;97082.69;;;23.38;57.47
76052;BME280;64751;48.708;9.710;2023-07-29T17:06:10;97082.28;;;23.36;57.10
76052;BME280;64751;48.708;9.710;2023-07-29T17:08:39;97085.41;;;23.41;56.59
76052;BME280;64751;48.708;9.710;2023-07-29T17:11:07;97088.59;;;23.54;56.18
76052;BME280;64751;48.708;9.710;2023-07-29T17:13:36;97078.25;;;23.56;56.18
76052;BME280;64751;48.708;9.710;2023-07-29T17:16:04;97085.66;;;23.69;56.65
76052;BME280;64751;48.708;9.710;2023-07-29T17:18:32;97079.84;;;23.67;55.71
76052;BME280;64751;48.708;9.710;2023-07-29T17:21:00;97089.03;;;23.56;55.57
76052;BME280;64751;48.708;9.710;2023-07-29T17:23:30;97088.09;;;23.41;56.33
76052;BME280;64751;48.708;9.710;2023-07-29T17:26:00;97085.22;;;23.27;57.71
76052;BME280;64751;48.708;9.710;2023-07-29T17:28:28;97097.81;;;23.16;58.21
76052;BME280;64751;48.708;9.710;2023-07-29T17:30:56;97098.09;;;23.07;58.22
76052;BME280;64751;48.708;9.710;2023-07-29T17:33:23;97096.06;;;22.97;57.99
76052;BME280;64751;48.708;9.710;2023-07-29T17:35:51;97089.81;;;22.90;59.41
76052;BME280;64751;48.708;9.710;2023-07-29T17:38:20;97097.44;;;22.84;60.13
76052;BME280;64751;48.708;9.710;2023-07-29T17:40:47;97107.72;;;22.75;60.95
76052;BME280;64751;48.708;9.710;2023-07-29T17:43:16;97104.94;;;22.68;61.34
76052;BME280;64751;48.708;9.710;2023-07-29T17:45:44;97097.97;;;22.64;62.32
76052;BME280;64751;48.708;9.710;2023-07-29T17:48:12;97098.19;;;22.55;63.14
76052;BME280;64751;48.708;9.710;2023-07-29T17:50:40;97115.78;;;22.49;64.65
76052;BME280;64751;48.708;9.710;2023-07-29T17:53:08;97124.09;;;22.37;66.92
76052;BME280;64751;48.708;9.710;2023-07-29T17:55:36;97153.53;;;22.26;69.78
76052;BME280;64751;48.708;9.710;2023-07-29T17:58:05;97176.66;;;22.08;70.97
76052;BME280;64751;48.708;9.710;2023-07-29T18:00:34;97190.28;;;21.74;75.15
76052;BME280;64751;48.708;9.710;2023-07-29T18:03:02;97204.03;;;21.49;78.88
76052;BME280;64751;48.708;9.710;2023-07-29T18:05:30;97197.03;;;21.26;80.99
76052;BME280;64751;48.708;9.710;2023-07-29T18:07:57;97200.03;;;21.05;83.37
76052;BME280;64751;48.708;9.710;2023-07-29T18:10:25;97206.06;;;20.83;86.39
76052;BME280;64751;48.708;9.710;2023-07-29T18:12:53;97212.84;;;20.77;86.93
76052;BME280;64751;48.708;9.710;2023-07-29T18:15:21;97204.97;;;20.68;87.95
76052;BME280;64751;48.708;9.710;2023-07-29T18:17:50;97207.31;;;20.70;87.69
76052;BME280;64751;48.708;9.710;2023-07-29T18:20:17;97204.47;;;20.63;88.55
76052;BME280;64751;48.708;9.710;2023-07-29T18:22:45;97199.81;;;20.60;88.20
76052;BME280;64751;48.708;9.710;2023-07-29T18:25:14;97210.13;;;20.58;89.13
76052;BME280;64751;48.708;9.710;2023-07-29T18:27:42;97211.66;;;20.59;90.13
76052;BME280;64751;48.708;9.710;2023-07-29T18:30:10;97223.06;;;20.56;90.38
76052;BME280;64751;48.708;9.710;2023-07-29T18:32:40;97217.28;;;20.54;90.45
76052;BME280;64751;48.708;9.710;2023-07-29T18:35:09;97228.31;;;20.49;90.55
76052;BME280;64751;48.708;9.710;2023-07-29T18:37:43;97225.69;;;20.37;90.71
76052;BME280;64751;48.708;9.710;2023-07-29T18:40:11;97219.81;;;20.31;90.32
76052;BME280;64751;48.708;9.710;2023-07-29T18:42:39;97213.94;;;20.26;91.34
76052;BME280;64751;48.708;9.710;2023-07-29T18:45:07;97221.41;;;20.20;91.22
76052;BME280;64751;48.708;9.710;2023-07-29T18:47:35;97214.41;;;20.15;91.86
76052;BME280;64751;48.708;9.710;2023-07-29T18:50:03;97216.22;;;20.11;91.01
76052;BME280;64751;48.708;9.710;2023-07-29T18:52:32;97206.91;;;20.05;91.08
76052;BME280;64751;48.708;9.710;2023-07-29T18:55:01;97208.34;;;20.03;91.86
76052;BME280;64751;48.708;9.710;2023-07-29T18:57:29;97202.56;;;20.01;91.76
76052;BME280;64751;48.708;9.710;2023-07-29T18:59:56;97211.22;;;19.94;92.19
76052;BME280;64751;48.708;9.710;2023-07-29T19:02:26;97209.63;;;19.93;92.59
76052;BME280;64751;48.708;9.710;2023-07-29T19:04:54;97213.47;;;19.92;92.27
76052;BME280;64751;48.708;9.710;2023-07-29T19:07:21;97215.28;;;19.88;92.37
76052;BME280;64751;48.708;9.710;2023-07-29T19:09:52;97207.06;;;19.81;93.22
76052;BME280;64751;48.708;9.710;2023-07-29T19:12:23;97210.84;;;19.80;93.44
76052;BME280;64751;48.708;9.710;2023-07-29T19:14:51;97203.94;;;19.79;93.91
76052;BME280;64751;48.708;9.710;2023-07-29T19:17:18;97208.41;;;19.75;93.99
76052;BME280;64751;48.708;9.710;2023-07-29T19:19:46;97194.91;;;19.72;94.33
76052;BME280;64751;48.708;9.710;2023-07-29T19:22:14;97195.59;;;19.69;94.12
76052;BME280;64751;48.708;9.710;2023-07-29T19:24:42;97197.06;;;19.66;94.23
76052;BME280;64751;48.708;9.710;2023-07-29T19:27:11;97197.75;;;19.63;93.95
76052;BME280;64751;48.708;9.710;2023-07-29T19:29:39;97202.25;;;19.59;93.89
76052;BME280;64751;48.708;9.710;2023-07-29T19:32:06;97198.34;;;19.57;93.61
76052;BME280;64751;48.708;9.710;2023-07-29T19:34:34;97192.44;;;19.51;93.59
76052;BME280;64751;48.708;9.710;2023-07-29T19:37:02;97194.34;;;19.50;93.93
76052;BME280;64751;48.708;9.710;2023-07-29T19:39:29;97193.41;;;19.43;93.32
76052;BME280;64751;48.708;9.710;2023-07-29T19:41:57;97198.75;;;19.43;93.56
76052;BME280;64751;48.708;9.710;2023-07-29T19:44:26;97205.91;;;19.39;93.46
76052;BME280;64751;48.708;9.710;2023-07-29T19:46:53;97216.16;;;19.37;93.18
76052;BME280;64751;48.708;9.710;2023-07-29T19:49:21;97210.81;;;19.37;93.35
76052;BME280;64751;48.708;9.710;2023-07-29T19:51:49;97206.59;;;19.36;93.09
76052;BME280;64751;48.708;9.710;2023-07-29T19:54:17;97209.59;;;19.34;93.39
76052;BME280;64751;48.708;9.710;2023-07-29T19:56:44;97206.78;;;19.31;92.85
76052;BME280;64751;48.708;9.710;2023-07-29T19:59:12;97198.31;;;19.29;93.14
76052;BME280;64751;48.708;9.710;2023-07-29T20:01:40;97205.03;;;19.23;93.76
76052;BME280;64751;48.708;9.710;2023-07-29T20:04:08;97200.34;;;19.20;94.17
76052;BME280;64751;48.708;9.710;2023-07-29T20:06:35;97198.69;;;19.15;94.11
76052;BME280;64751;48.708;9.710;2023-07-29T20:09:04;97195.50;;;19.10;93.51
76052;BME280;64751;48.708;9.710;2023-07-29T20:11:31;97191.34;;;19.12;94.09
76052;BME280;64751;48.708;9.710;2023-07-29T20:13:59;97200.59;;;19.15;94.23
76052;BME280;64751;48.708;9.710;2023-07-29T20:16:28;97196.38;;;19.14;94.39
76052;BME280;64751;48.708;9.710;2023-07-29T20:18:57;97190.16;;;19.10;94.00
76052;BME280;64751;48.708;9.710;2023-07-29T20:21:25;97197.72;;;19.08;92.86
76052;BME280;64751;48.708;9.710;2023-07-29T20:23:53;97204.19;;;19.07;92.70
76052;BME280;64751;48.708;9.710;2023-07-29T20:26:21;97199.50;;;19.04;92.65
76052;BME280;64751;48.708;9.710;2023-07-29T20:28:48;97204.44;;;19.02;92.18
76052;BME280;64751;48.708;9.710;2023-07-29T20:31:16;97213.59;;;19.01;92.43
76052;BME280;64751;48.708;9.710;2023-07-29T20:33:43;97209.69;;;18.98;92.83
76052;BME280;64751;48.708;9.710;2023-07-29T20:36:12;97214.59;;;18.96;92.36
76052;BME280;64751;48.708;9.710;2023-07-29T20:38:40;97210.00;;;18.97;92.26
76052;BME280;64751;48.708;9.710;2023-07-29T20:41:08;97212.00;;;19.00;91.66
76052;BME280;64751;48.708;9.710;2023-07-29T20:43:35;97211.56;;;18.98;91.57
76052;BME280;64751;48.708;9.710;2023-07-29T20:46:03;97207.34;;;18.97;91.36
76052;BME280;64751;48.708;9.710;2023-07-29T20:48:31;97211.81;;;18.93;91.35
76052;BME280;64751;48.708;9.710;2023-07-29T20:50:59;97216.72;;;18.91;91.57
76052;BME280;64751;48.708;9.710;2023-07-29T20:53:28;97209.34;;;18.88;91.95
76052;BME280;64751;48.708;9.710;2023-07-29T20:55:57;97216.19;;;18.85;91.73
76052;BME280;64751;48.708;9.710;2023-07-29T20:58:27;97211.50;;;18.82;91.60
76052;BME280;64751;48.708;9.710;2023-07-29T21:00:54;97211.38;;;18.78;91.29
76052;BME280;64751;48.708;9.710;2023-07-29T21:03:22;97219.75;;;18.77;91.59
76052;BME280;64751;48.708;9.710;2023-07-29T21:05:49;97219.97;;;18.72;91.23
76052;BME280;64751;48.708;9.710;2023-07-29T21:08:17;97227.91;;;18.68;91.32
76052;BME280;64751;48.708;9.710;2023-07-29T21:10:49;97221.88;;;18.59;91.35
76052;BME280;64751;48.708;9.710;2023-07-29T21:13:17;97228.59;;;18.53;91.80
76052;BME280;64751;48.708;9.710;2023-07-29T21:15:48;97224.25;;;18.49;91.86
76052;BME280;64751;48.708;9.710;2023-07-29T21:18:16;97231.22;;;18.41;92.42
76052;BME280;64751;48.708;9.710;2023-07-29T21:20:44;97229.19;;;18.38;92.44
76052;BME280;64751;48.708;9.710;2023-07-29T21:23:11;97230.97;;;18.34;92.18
76052;BME280;64751;48.708;9.710;2023-07-29T21:25:39;97238.91;;;18.31;92.63
76052;BME280;64751;48.708;9.710;2023-07-29T21:28:08;97225.84;;;18.29;92.32
76052;BME280;64751;48.708;9.710;2023-07-29T21:30:36;97227.63;;;18.25;92.74
76052;BME280;64751;48.708;9.710;2023-07-29T21:33:03;97224.88;;;18.22;92.94
76052;BME280;64751;48.708;9.710;2023-07-29T21:35:31;97227.09;;;18.20;93.09
76052;BME280;64751;48.708;9.710;2023-07-29T21:37:59;97230.06;;;18.18;93.08
76052;BME280;64751;48.708;9.710;2023-07-29T21:40:26;97236.09;;;18.15;93.33
76052;BME280;64751;48.708;9.710;2023-07-29T21:42:54;97233.75;;;18.13;93.75
76052;BME280;64751;48.708;9.710;2023-07-29T21:45:23;97227.19;;;18.11;93.20
76052;BME280;64751;48.708;9.710;2023-07-29T21:47:50;97227.50;;;18.09;93.45
76052;BME280;64751;48.708;9.710;2023-07-29T21:50:18;97231.75;;;18.10;93.81
76052;BME280;64751;48.708;9.710;2023-07-29T21:52:46;97233.19;;;18.08;94.81
76052;BME280;64751;48.708;9.710;2023-07-29T21:55:14;97234.75;;;18.09;94.67
76052;BME280;64751;48.708;9.710;2023-07-29T21:57:41;97241.22;;;18.08;94.31
76052;BME280;64751;48.708;9.710;2023-07-29T22:00:09;97240.09;;;18.09;94.19
